createdAt,value
2023-04-14T00:02:03.440Z,5.70
2023-04-14T00:04:30.725Z,5.60
2023-04-14T00:06:58.661Z,5.60
2023-04-14T00:09:26.296Z,5.60
2023-04-14T00:11:53.319Z,5.60
2023-04-14T00:14:20.281Z,5.50
2023-04-14T00:16:47.375Z,5.50
2023-04-14T00:19:14.369Z,5.50
2023-04-14T00:21:45.946Z,5.60
2023-04-14T00:24:12.807Z,5.60
2023-04-14T00:26:39.725Z,5.60
2023-04-14T00:29:06.498Z,5.50
2023-04-14T00:31:34.226Z,5.50
2023-04-14T00:34:01.166Z,5.50
2023-04-14T00:36:28.036Z,5.50
2023-04-14T00:38:54.901Z,5.40
2023-04-14T00:41:21.799Z,5.50
2023-04-14T00:43:48.563Z,5.40
2023-04-14T00:46:17.263Z,5.40
2023-04-14T00:48:44.415Z,5.40
2023-04-14T00:51:11.555Z,5.40
2023-04-14T00:53:40.048Z,5.40
2023-04-14T00:56:08.201Z,5.40
2023-04-14T00:58:35.491Z,5.40
2023-04-14T01:01:02.778Z,5.30
2023-04-14T01:03:29.906Z,5.30
2023-04-14T01:05:58.108Z,5.30
2023-04-14T01:08:25.070Z,5.30
2023-04-14T01:10:59.746Z,5.20
2023-04-14T01:13:36.949Z,5.20
2023-04-14T01:16:11.594Z,5.20
2023-04-14T01:18:47.221Z,5.20
2023-04-14T01:21:17.359Z,5.20
2023-04-14T01:24:02.976Z,5.10
2023-04-14T01:26:31.271Z,5.10
2023-04-14T01:29:01.545Z,5.10
2023-04-14T01:31:41.271Z,5.10
2023-04-14T01:34:08.117Z,5.00
2023-04-14T01:36:39.967Z,5.00
2023-04-14T01:39:08.558Z,5.00
2023-04-14T01:41:37.482Z,5.00
2023-04-14T01:44:04.440Z,5.00
2023-04-14T01:46:34.675Z,5.00
2023-04-14T01:49:02.436Z,5.00
2023-04-14T01:51:29.923Z,5.00
2023-04-14T01:53:57.906Z,5.00
2023-04-14T01:56:25.595Z,4.90
2023-04-14T01:58:55.926Z,4.90
2023-04-14T02:01:26.435Z,4.80
2023-04-14T02:03:56.055Z,4.80
2023-04-14T02:06:22.986Z,4.80
2023-04-14T02:08:51.011Z,4.70
2023-04-14T02:11:18.931Z,4.70
2023-04-14T02:13:46.814Z,4.70
2023-04-14T02:16:14.054Z,4.70
2023-04-14T02:18:41.387Z,4.70
2023-04-14T02:21:08.916Z,4.70
2023-04-14T02:23:37.808Z,4.70
2023-04-14T02:26:07.582Z,4.60
2023-04-14T02:28:36.325Z,4.60
2023-04-14T02:31:08.949Z,4.60
2023-04-14T02:33:37.515Z,4.50
2023-04-14T02:36:19.236Z,4.50
2023-04-14T02:38:47.776Z,4.60
2023-04-14T02:41:24.947Z,4.50
2023-04-14T02:44:01.717Z,4.50
2023-04-14T02:46:31.933Z,4.50
2023-04-14T02:49:00.798Z,4.40
2023-04-14T02:51:28.239Z,4.50
2023-04-14T02:53:55.564Z,4.50
2023-04-14T02:56:37.742Z,4.40
2023-04-14T02:59:05.441Z,4.40
2023-04-14T03:01:33.811Z,4.40
2023-04-14T03:04:01.807Z,4.40
2023-04-14T03:06:33.284Z,4.40
2023-04-14T03:09:01.474Z,4.40
2023-04-14T03:11:30.855Z,4.40
2023-04-14T03:13:59.300Z,4.30
2023-04-14T03:16:27.541Z,4.30
2023-04-14T03:18:55.479Z,4.30
2023-04-14T03:21:23.295Z,4.20
2023-04-14T03:23:51.285Z,4.20
2023-04-14T03:26:20.588Z,4.20
2023-04-14T03:28:50.776Z,4.20
2023-04-14T03:31:19.429Z,4.20
2023-04-14T03:33:56.494Z,4.20
2023-04-14T03:36:30.538Z,4.20
2023-04-14T03:39:01.657Z,4.20
2023-04-14T03:41:53.146Z,4.20
2023-04-14T03:44:26.633Z,4.20
2023-04-14T03:46:54.677Z,4.20
2023-04-14T03:49:23.776Z,4.20
2023-04-14T03:51:53.603Z,4.20
2023-04-14T03:54:22.406Z,4.20
2023-04-14T03:56:49.748Z,4.10
2023-04-14T03:59:19.573Z,4.10
2023-04-14T04:01:47.298Z,4.00
2023-04-14T04:04:15.132Z,4.10
2023-04-14T04:06:42.259Z,4.00
2023-04-14T04:09:12.567Z,4.00
2023-04-14T04:11:42.011Z,4.00
2023-04-14T04:14:09.505Z,4.00
2023-04-14T04:16:38.648Z,4.00
2023-04-14T04:19:06.469Z,4.00
2023-04-14T04:21:40.368Z,4.00
2023-04-14T04:24:08.250Z,4.00
2023-04-14T04:26:36.553Z,4.00
2023-04-14T04:29:04.672Z,3.90
2023-04-14T04:31:33.000Z,3.90
2023-04-14T04:34:00.828Z,3.90
2023-04-14T04:36:28.795Z,3.90
2023-04-14T04:38:57.041Z,3.90
2023-04-14T04:41:25.393Z,3.90
2023-04-14T04:43:53.120Z,3.90
2023-04-14T04:46:23.369Z,3.90
2023-04-14T04:48:51.510Z,3.80
2023-04-14T04:51:21.598Z,3.80
2023-04-14T04:53:48.559Z,3.80
2023-04-14T04:56:15.813Z,3.90
2023-04-14T04:58:42.696Z,3.90
2023-04-14T05:01:10.332Z,3.80
2023-04-14T05:03:37.736Z,3.80
2023-04-14T05:06:04.759Z,3.80
2023-04-14T05:08:31.593Z,3.80
2023-04-14T05:10:58.337Z,3.80
2023-04-14T05:13:25.375Z,3.80
2023-04-14T05:15:52.412Z,3.80
2023-04-14T05:18:19.581Z,3.80
2023-04-14T05:20:46.534Z,3.80
2023-04-14T05:23:15.541Z,3.80
2023-04-14T05:25:42.473Z,3.80
2023-04-14T05:28:09.509Z,3.90
2023-04-14T05:30:37.010Z,3.90
2023-04-14T05:33:03.937Z,3.90
2023-04-14T05:35:31.004Z,3.90
2023-04-14T05:37:57.865Z,3.90
2023-04-14T05:40:24.940Z,3.90
2023-04-14T05:42:57.357Z,4.00
2023-04-14T05:45:25.120Z,4.00
2023-04-14T05:47:52.031Z,4.00
2023-04-14T05:50:18.868Z,4.00
2023-04-14T05:52:46.116Z,4.10
2023-04-14T05:55:12.900Z,4.20
2023-04-14T05:57:40.003Z,4.10
2023-04-14T06:00:07.480Z,4.20
2023-04-14T06:02:40.121Z,4.30
2023-04-14T06:05:07.729Z,4.30
2023-04-14T06:07:35.233Z,4.30
2023-04-14T06:10:02.336Z,4.40
2023-04-14T06:12:29.139Z,4.40
2023-04-14T06:14:56.104Z,4.50
2023-04-14T06:17:23.656Z,4.50
2023-04-14T06:19:50.725Z,4.50
2023-04-14T06:22:19.773Z,4.60
2023-04-14T06:24:46.735Z,4.70
2023-04-14T06:27:13.865Z,4.80
2023-04-14T06:29:40.966Z,4.80
2023-04-14T06:32:07.884Z,4.90
2023-04-14T06:34:34.760Z,5.00
2023-04-14T06:37:01.722Z,5.10
2023-04-14T06:39:28.562Z,5.20
2023-04-14T06:41:55.607Z,5.20
2023-04-14T06:44:23.182Z,5.20
2023-04-14T06:46:50.104Z,5.30
2023-04-14T06:49:17.631Z,5.40
2023-04-14T06:51:45.777Z,5.40
2023-04-14T06:54:12.672Z,5.50
2023-04-14T06:56:39.430Z,5.60
2023-04-14T06:59:06.292Z,5.70
2023-04-14T07:01:33.230Z,5.80
2023-04-14T07:04:05.099Z,5.90
2023-04-14T07:06:33.817Z,6.00
2023-04-14T07:09:00.571Z,6.00
2023-04-14T07:11:27.643Z,6.10
2023-04-14T07:13:54.474Z,6.20
2023-04-14T07:16:21.387Z,6.30
2023-04-14T07:18:48.397Z,6.40
2023-04-14T07:21:15.564Z,6.50
2023-04-14T07:23:44.614Z,6.60
2023-04-14T07:26:12.078Z,6.70
2023-04-14T07:28:39.195Z,6.70
2023-04-14T07:31:09.877Z,6.90
2023-04-14T07:33:37.369Z,7.00
2023-04-14T07:36:08.138Z,7.10
2023-04-14T07:38:35.696Z,7.20
2023-04-14T07:41:03.807Z,7.20
2023-04-14T07:43:36.975Z,7.30
2023-04-14T07:46:05.261Z,7.40
2023-04-14T07:48:32.936Z,7.50
2023-04-14T07:50:59.814Z,7.60
2023-04-14T07:53:26.682Z,7.70
2023-04-14T07:55:53.533Z,7.80
2023-04-14T07:58:21.254Z,7.90
2023-04-14T08:00:49.479Z,8.00
2023-04-14T08:03:17.332Z,8.10
2023-04-14T08:05:44.493Z,8.20
2023-04-14T08:08:12.357Z,8.30
2023-04-14T08:10:40.618Z,8.40
2023-04-14T08:13:11.513Z,8.50
2023-04-14T08:15:38.551Z,8.50
2023-04-14T08:18:05.515Z,8.60
2023-04-14T08:20:32.585Z,8.60
2023-04-14T08:22:59.842Z,8.70
2023-04-14T08:25:26.778Z,8.80
2023-04-14T08:27:53.799Z,8.70
2023-04-14T08:30:20.667Z,8.80
2023-04-14T08:32:47.533Z,8.90
2023-04-14T08:35:37.236Z,8.90
2023-04-14T08:38:02.419Z,9.00
2023-04-14T08:40:39.483Z,9.10
2023-04-14T08:43:06.995Z,9.20
2023-04-14T08:45:34.416Z,9.20
2023-04-14T08:48:02.786Z,9.30
2023-04-14T08:50:36.237Z,9.40
2023-04-14T08:53:06.582Z,9.40
2023-04-14T08:55:33.816Z,9.50
2023-04-14T08:58:04.074Z,9.60
2023-04-14T09:00:31.418Z,9.60
2023-04-14T09:02:58.802Z,9.60
2023-04-14T09:05:26.101Z,9.70
2023-04-14T09:07:53.631Z,9.70
2023-04-14T09:10:21.484Z,9.70
2023-04-14T09:12:48.605Z,9.80
2023-04-14T09:15:16.998Z,9.80
2023-04-14T09:17:44.194Z,9.90
2023-04-14T09:20:36.682Z,10.00
2023-04-14T09:23:07.471Z,10.00
2023-04-14T09:25:34.555Z,10.10
2023-04-14T09:28:01.592Z,10.20
2023-04-14T09:30:28.962Z,10.20
2023-04-14T09:32:56.594Z,10.20
2023-04-14T09:35:24.438Z,10.20
2023-04-14T09:37:51.339Z,10.30
2023-04-14T09:40:31.069Z,10.30
2023-04-14T09:42:57.922Z,10.40
2023-04-14T09:45:44.913Z,10.50
2023-04-14T09:48:13.496Z,10.50
2023-04-14T09:50:58.118Z,10.60
2023-04-14T09:53:27.096Z,10.60
2023-04-14T09:55:54.020Z,10.60
2023-04-14T09:58:27.290Z,10.70
2023-04-14T10:00:56.942Z,10.70
2023-04-14T10:03:38.110Z,10.80
2023-04-14T10:06:07.402Z,10.90
2023-04-14T10:08:38.700Z,10.90
2023-04-14T10:11:15.620Z,11.00
2023-04-14T10:13:43.020Z,11.00
2023-04-14T10:16:10.688Z,11.10
2023-04-14T10:18:38.931Z,11.10
2023-04-14T10:21:06.114Z,11.20
2023-04-14T10:23:33.841Z,11.30
2023-04-14T10:26:01.202Z,11.30
2023-04-14T10:28:28.810Z,11.30
2023-04-14T10:30:56.445Z,11.30
2023-04-14T10:33:23.743Z,11.40
2023-04-14T10:35:54.015Z,11.40
2023-04-14T10:38:20.823Z,11.40
2023-04-14T10:40:48.512Z,11.40
2023-04-14T10:43:16.148Z,11.50
2023-04-14T10:46:01.069Z,11.50
2023-04-14T10:48:32.403Z,11.60
2023-04-14T10:51:00.117Z,11.60
2023-04-14T10:53:27.128Z,11.70
2023-04-14T10:55:57.515Z,11.80
2023-04-14T10:58:29.274Z,11.80
2023-04-14T11:00:59.328Z,11.90
2023-04-14T11:03:30.727Z,11.90
2023-04-14T11:05:58.094Z,11.90
2023-04-14T11:08:26.364Z,12.00
2023-04-14T11:11:04.185Z,12.00
2023-04-14T11:13:32.074Z,12.00
2023-04-14T11:16:01.922Z,12.00
2023-04-14T11:18:28.957Z,12.10
2023-04-14T11:21:06.063Z,12.10
2023-04-14T11:23:33.578Z,12.10
2023-04-14T11:26:00.458Z,12.20
2023-04-14T11:28:31.528Z,12.30
2023-04-14T11:31:02.203Z,12.30
2023-04-14T11:33:30.595Z,12.30
2023-04-14T11:35:57.791Z,12.40
2023-04-14T11:38:24.685Z,12.40
2023-04-14T11:40:52.056Z,12.50
2023-04-14T11:43:22.736Z,12.50
2023-04-14T11:45:54.853Z,12.50
2023-04-14T11:48:25.343Z,12.50
2023-04-14T11:50:52.330Z,12.60
2023-04-14T11:53:19.336Z,12.60
2023-04-14T11:55:48.281Z,12.60
2023-04-14T11:58:16.607Z,12.70
2023-04-14T12:00:43.840Z,12.60
2023-04-14T12:03:11.307Z,12.60
2023-04-14T12:05:45.539Z,12.60
2023-04-14T12:08:13.289Z,12.70
2023-04-14T12:10:42.166Z,12.70
2023-04-14T12:13:10.095Z,12.60
2023-04-14T12:15:37.891Z,12.60
2023-04-14T12:18:08.973Z,12.60
2023-04-14T12:20:43.041Z,12.60
2023-04-14T12:23:10.149Z,12.60
2023-04-14T12:25:37.070Z,12.60
2023-04-14T12:28:06.571Z,12.50
2023-04-14T12:30:34.061Z,12.50
2023-04-14T12:33:06.515Z,12.50
2023-04-14T12:35:36.437Z,12.50
2023-04-14T12:38:08.948Z,12.50
2023-04-14T12:40:40.282Z,12.50
2023-04-14T12:43:07.364Z,12.60
2023-04-14T12:45:44.424Z,12.60
2023-04-14T12:48:22.192Z,12.50
2023-04-14T12:50:51.204Z,12.50
2023-04-14T12:53:24.739Z,12.60
2023-04-14T12:56:04.725Z,12.60
2023-04-14T12:58:32.113Z,12.60
2023-04-14T13:01:08.783Z,12.70
2023-04-14T13:03:59.404Z,12.60
2023-04-14T13:06:26.246Z,12.70
2023-04-14T13:08:54.113Z,12.70
2023-04-14T13:11:22.188Z,12.70
2023-04-14T13:13:49.290Z,12.70
2023-04-14T13:16:18.604Z,12.70
2023-04-14T13:18:48.040Z,12.70
2023-04-14T13:21:15.234Z,12.70
2023-04-14T13:23:42.128Z,12.70
2023-04-14T13:26:12.778Z,12.70
2023-04-14T13:28:39.700Z,12.70
2023-04-14T13:31:06.932Z,12.70
2023-04-14T13:33:33.922Z,12.70
2023-04-14T13:36:01.366Z,12.70
2023-04-14T13:38:28.292Z,12.70
2023-04-14T13:40:55.552Z,12.70
2023-04-14T13:43:23.236Z,12.70
2023-04-14T13:45:50.105Z,12.80
2023-04-14T13:48:17.039Z,12.70
2023-04-14T13:50:43.886Z,12.60
2023-04-14T13:53:12.286Z,12.60
2023-04-14T13:55:41.179Z,12.60
2023-04-14T13:58:08.044Z,12.60
2023-04-14T14:00:35.036Z,12.60
2023-04-14T14:03:02.048Z,12.60
2023-04-14T14:05:29.060Z,12.60
2023-04-14T14:07:56.864Z,12.60
2023-04-14T14:10:23.939Z,12.60
2023-04-14T14:12:50.743Z,12.60
2023-04-14T14:15:17.671Z,12.70
2023-04-14T14:17:44.532Z,12.70
2023-04-14T14:20:11.467Z,12.80
2023-04-14T14:22:38.503Z,12.70
2023-04-14T14:25:20.406Z,12.60
2023-04-14T14:27:48.483Z,12.60
2023-04-14T14:30:15.829Z,12.60
2023-04-14T14:32:42.703Z,12.60
2023-04-14T14:35:09.725Z,12.50
2023-04-14T14:37:36.826Z,12.40
2023-04-14T14:40:04.153Z,12.50
2023-04-14T14:42:31.269Z,12.50
2023-04-14T14:44:58.972Z,12.40
2023-04-14T14:47:28.371Z,12.40
2023-04-14T14:50:00.484Z,12.40
2023-04-14T14:52:33.272Z,12.40
2023-04-14T14:55:00.272Z,12.40
2023-04-14T14:57:27.147Z,12.40
2023-04-14T14:59:53.990Z,12.50
2023-04-14T15:02:21.403Z,12.60
2023-04-14T15:04:48.823Z,12.60
2023-04-14T15:07:15.925Z,12.60
2023-04-14T15:09:42.824Z,12.70
2023-04-14T15:12:11.665Z,12.70
2023-04-14T15:14:38.455Z,12.70
2023-04-14T15:17:05.296Z,12.60
2023-04-14T15:19:32.932Z,12.70
2023-04-14T15:22:00.331Z,12.80
2023-04-14T15:24:27.193Z,12.80
2023-04-14T15:26:54.011Z,12.80
2023-04-14T15:29:24.834Z,12.80
2023-04-14T15:31:52.163Z,12.90
2023-04-14T15:34:19.052Z,12.80
2023-04-14T15:36:46.109Z,12.90
2023-04-14T15:39:12.939Z,12.90
2023-04-14T15:41:39.762Z,12.90
2023-04-14T15:44:07.065Z,12.80
2023-04-14T15:46:33.937Z,12.80
2023-04-14T15:49:01.110Z,12.80
2023-04-14T15:51:27.906Z,12.80
2023-04-14T15:53:54.708Z,12.80
2023-04-14T15:56:23.296Z,12.80
2023-04-14T15:58:50.579Z,12.90
2023-04-14T16:01:17.947Z,12.80
2023-04-14T16:03:45.214Z,12.70
2023-04-14T16:06:12.330Z,12.70
2023-04-14T16:08:39.157Z,12.70
2023-04-14T16:11:06.018Z,12.70
2023-04-14T16:13:33.135Z,12.70
2023-04-14T16:16:00.146Z,12.50
2023-04-14T16:18:27.018Z,12.50
2023-04-14T16:20:53.895Z,12.50
2023-04-14T16:23:20.741Z,12.50
2023-04-14T16:25:49.945Z,12.40
2023-04-14T16:28:16.745Z,12.50
2023-04-14T16:30:43.864Z,12.40
2023-04-14T16:33:10.825Z,12.40
2023-04-14T16:35:37.831Z,12.40
2023-04-14T16:38:08.302Z,12.30
2023-04-14T16:40:35.945Z,12.30
2023-04-14T16:43:03.323Z,12.30
2023-04-14T16:45:34.674Z,12.30
2023-04-14T16:48:01.993Z,12.20
2023-04-14T16:50:29.645Z,12.30
2023-04-14T16:52:56.584Z,12.20
2023-04-14T16:55:23.535Z,12.20
2023-04-14T16:57:50.711Z,12.20
2023-04-14T17:00:17.758Z,12.20
2023-04-14T17:02:44.859Z,12.20
2023-04-14T17:05:15.777Z,12.20
2023-04-14T17:07:43.108Z,12.20
2023-04-14T17:10:10.496Z,12.20
2023-04-14T17:12:37.300Z,12.10
2023-04-14T17:15:04.614Z,12.10
2023-04-14T17:17:32.128Z,12.10
2023-04-14T17:20:00.080Z,12.10
2023-04-14T17:22:27.258Z,12.00
2023-04-14T17:24:54.444Z,12.00
2023-04-14T17:27:22.350Z,11.90
2023-04-14T17:29:49.451Z,11.80
2023-04-14T17:32:16.689Z,11.80
2023-04-14T17:34:43.667Z,11.70
2023-04-14T17:37:10.700Z,11.70
2023-04-14T17:39:37.549Z,11.50
2023-04-14T17:42:05.390Z,11.50
2023-04-14T17:44:33.193Z,11.40
2023-04-14T17:47:06.661Z,11.30
2023-04-14T17:49:36.042Z,11.30
2023-04-14T17:52:19.664Z,11.30
2023-04-14T17:54:48.214Z,11.20
2023-04-14T17:57:17.401Z,11.20
2023-04-14T17:59:45.283Z,11.20
2023-04-14T18:02:14.386Z,11.10
2023-04-14T18:04:44.380Z,11.20
2023-04-14T18:07:13.110Z,11.10
2023-04-14T18:09:43.784Z,11.10
2023-04-14T18:12:12.743Z,11.00
2023-04-14T18:18:07.667Z,10.90
2023-04-14T18:20:48.303Z,10.80
2023-04-14T18:23:32.473Z,10.80
2023-04-14T18:26:34.752Z,10.80
2023-04-14T18:29:23.379Z,10.80
2023-04-14T18:38:11.370Z,10.80
2023-04-14T18:40:38.397Z,10.70
2023-04-14T18:43:05.199Z,10.70
2023-04-14T18:45:32.000Z,10.60
2023-04-14T18:47:58.957Z,10.60
2023-04-14T18:50:25.756Z,10.60
2023-04-14T18:52:52.567Z,10.50
2023-04-14T18:55:19.462Z,10.50
2023-04-14T18:57:46.540Z,10.40
2023-04-14T19:00:13.449Z,10.30
2023-04-14T19:02:40.447Z,10.20
2023-04-14T19:05:08.183Z,10.30
2023-04-14T19:07:35.001Z,10.30
2023-04-14T19:10:03.848Z,10.30
2023-04-14T19:12:31.179Z,10.30
2023-04-14T19:14:58.039Z,10.20
2023-04-14T19:17:24.910Z,10.10
2023-04-14T19:19:51.751Z,10.00
2023-04-14T19:22:19.143Z,10.00
2023-04-14T19:24:45.910Z,10.00
2023-04-14T19:27:13.252Z,10.00
2023-04-14T19:29:40.112Z,10.00
2023-04-14T19:32:06.949Z,10.00
2023-04-14T19:34:34.078Z,9.90
2023-04-14T19:37:00.995Z,9.80
2023-04-14T19:39:27.774Z,9.80
2023-04-14T19:41:54.564Z,9.70
2023-04-14T19:44:21.481Z,9.70
2023-04-14T19:46:48.324Z,9.70
2023-04-14T19:49:15.222Z,9.70
2023-04-14T19:51:43.110Z,9.70
2023-04-14T19:54:10.861Z,9.70
2023-04-14T19:56:37.916Z,9.70
2023-04-14T19:59:05.420Z,9.70
2023-04-14T20:01:32.277Z,9.70
2023-04-14T20:04:09.926Z,9.70
2023-04-14T20:06:40.214Z,9.70
2023-04-14T20:09:06.976Z,9.80
2023-04-14T20:11:33.849Z,9.80
2023-04-14T20:14:01.168Z,9.80
2023-04-14T20:16:28.005Z,9.80
2023-04-14T20:18:55.441Z,9.70
2023-04-14T20:21:22.524Z,9.70
2023-04-14T20:23:49.312Z,9.70
2023-04-14T20:26:16.445Z,9.70
2023-04-14T20:28:43.190Z,9.70
2023-04-14T20:31:10.352Z,9.60
2023-04-14T20:33:37.812Z,9.50
2023-04-14T20:36:04.959Z,9.50
2023-04-14T20:38:31.802Z,9.50
2023-04-14T20:40:59.150Z,9.50
2023-04-14T20:43:33.498Z,9.50
2023-04-14T20:46:01.169Z,9.40
2023-04-14T20:48:28.257Z,9.40
2023-04-14T20:50:55.095Z,9.40
2023-04-14T20:53:25.233Z,9.40
2023-04-14T20:55:55.009Z,9.40
2023-04-14T20:58:21.882Z,9.40
2023-04-14T21:00:49.185Z,9.40
2023-04-14T21:03:16.353Z,9.30
2023-04-14T21:05:43.231Z,9.40
2023-04-14T21:08:10.010Z,9.30
2023-04-14T21:11:14.465Z,9.30
2023-04-14T21:15:31.453Z,9.30
2023-04-14T21:16:10.855Z,9.30
2023-04-14T21:18:37.842Z,9.30
2023-04-14T21:21:06.014Z,9.20
2023-04-14T21:23:35.082Z,9.20
2023-04-14T21:26:01.953Z,9.20
2023-04-14T21:28:28.802Z,9.20
2023-04-14T21:31:00.998Z,9.20
2023-04-14T21:33:28.217Z,9.20
2023-04-14T21:35:55.687Z,9.20
2023-04-14T21:38:22.721Z,9.20
2023-04-14T21:40:50.472Z,9.20
2023-04-14T21:43:17.534Z,9.10
2023-04-14T21:45:44.683Z,9.10
2023-04-14T21:48:12.579Z,9.10
2023-04-14T21:50:39.739Z,9.10
2023-04-14T21:53:06.530Z,9.10
2023-04-14T21:55:33.390Z,9.10
2023-04-14T21:58:01.152Z,9.10
2023-04-14T22:00:28.017Z,9.00
2023-04-14T22:02:55.306Z,9.00
2023-04-14T22:05:22.528Z,9.10
2023-04-14T22:07:49.346Z,9.10
2023-04-14T22:10:16.081Z,9.10
2023-04-14T22:12:43.579Z,9.10
2023-04-14T22:15:10.847Z,9.10
2023-04-14T22:17:38.774Z,9.00
2023-04-14T22:20:06.404Z,9.00
2023-04-14T22:22:33.725Z,9.00
2023-04-14T22:25:01.151Z,9.00
2023-04-14T22:27:27.984Z,9.00
2023-04-14T22:29:54.791Z,9.00
2023-04-14T22:32:21.863Z,9.00
2023-04-14T22:34:48.649Z,9.00
2023-04-14T22:37:15.388Z,9.00
2023-04-14T22:39:42.782Z,9.00
2023-04-14T22:42:09.871Z,9.00
2023-04-14T22:44:36.708Z,9.00
2023-04-14T22:47:03.898Z,9.00
2023-04-14T22:49:31.410Z,9.00
2023-04-14T22:51:58.212Z,9.00
2023-04-14T22:54:24.979Z,9.00
2023-04-14T22:56:52.259Z,9.00
2023-04-14T22:59:19.019Z,9.00
2023-04-14T23:01:45.912Z,9.00
2023-04-14T23:04:12.809Z,9.00
2023-04-14T23:06:39.702Z,9.00
2023-04-14T23:09:06.431Z,8.90
2023-04-14T23:11:33.704Z,8.90
2023-04-14T23:14:00.805Z,8.90
2023-04-14T23:16:27.718Z,8.90
2023-04-14T23:18:54.567Z,8.90
2023-04-14T23:21:24.760Z,8.90
2023-04-14T23:23:51.743Z,8.90
2023-04-14T23:26:19.663Z,8.90
2023-04-14T23:28:46.875Z,8.90
2023-04-14T23:31:13.778Z,8.90
2023-04-14T23:33:40.578Z,8.90
2023-04-14T23:36:07.885Z,8.90
2023-04-14T23:38:34.957Z,8.90
2023-04-14T23:41:02.185Z,8.90
2023-04-14T23:43:29.477Z,8.90
2023-04-14T23:45:56.679Z,8.90
2023-04-14T23:48:24.023Z,8.90
2023-04-14T23:51:00.851Z,8.90
2023-04-14T23:53:37.818Z,8.90
2023-04-14T23:56:04.840Z,8.90
2023-04-14T23:58:32.488Z,8.90
